sensor_id;sensor_type;location;lat;lon;timestamp;P1;durP1;ratioP1;P2;durP2;ratioP2
11300;SDS011;5706;50.650;13.380;2022-11-20T00:00:30;18.87;;;13.17;;
11300;SDS011;5706;50.650;13.380;2022-11-20T00:02:58;18.07;;;11.27;;
11300;SDS011;5706;50.650;13.380;2022-11-20T00:05:26;19.80;;;12.90;;
11300;SDS011;5706;50.650;13.380;2022-11-20T00:07:55;17.77;;;10.47;;
11300;SDS011;5706;50.650;13.380;2022-11-20T00:10:23;22.93;;;14.70;;
11300;SDS011;5706;50.650;13.380;2022-11-20T00:12:51;23.50;;;13.03;;
11300;SDS011;5706;50.650;13.380;2022-11-20T00:15:19;18.73;;;11.90;;
11300;SDS011;5706;50.650;13.380;2022-11-20T00:17:47;24.00;;;15.73;;
11300;SDS011;5706;50.650;13.380;2022-11-20T00:20:14;24.60;;;17.40;;
11300;SDS011;5706;50.650;13.380;2022-11-20T00:22:42;22.43;;;16.00;;
11300;SDS011;5706;50.650;13.380;2022-11-20T00:25:11;19.67;;;12.47;;
11300;SDS011;5706;50.650;13.380;2022-11-20T00:27:39;14.33;;;9.60;;
11300;SDS011;5706;50.650;13.380;2022-11-20T00:30:07;21.87;;;14.30;;
11300;SDS011;5706;50.650;13.380;2022-11-20T00:32:36;23.80;;;14.53;;
11300;SDS011;5706;50.650;13.380;2022-11-20T00:35:04;20.30;;;13.97;;
11300;SDS011;5706;50.650;13.380;2022-11-20T00:37:32;57.20;;;25.03;;
11300;SDS011;5706;50.650;13.380;2022-11-20T00:40:00;117.33;;;40.20;;
11300;SDS011;5706;50.650;13.380;2022-11-20T00:42:30;35.80;;;21.30;;
11300;SDS011;5706;50.650;13.380;2022-11-20T00:44:59;21.57;;;15.30;;
11300;SDS011;5706;50.650;13.380;2022-11-20T00:47:26;23.83;;;16.87;;
11300;SDS011;5706;50.650;13.380;2022-11-20T00:49:54;28.30;;;19.13;;
11300;SDS011;5706;50.650;13.380;2022-11-20T00:52:21;30.17;;;19.07;;
11300;SDS011;5706;50.650;13.380;2022-11-20T00:54:49;27.40;;;18.77;;
11300;SDS011;5706;50.650;13.380;2022-11-20T00:57:16;25.07;;;17.53;;
11300;SDS011;5706;50.650;13.380;2022-11-20T00:59:45;24.63;;;16.13;;
11300;SDS011;5706;50.650;13.380;2022-11-20T01:02:13;22.77;;;15.30;;
11300;SDS011;5706;50.650;13.380;2022-11-20T01:04:41;17.40;;;10.17;;
11300;SDS011;5706;50.650;13.380;2022-11-20T01:07:09;15.60;;;9.27;;
11300;SDS011;5706;50.650;13.380;2022-11-20T01:09:36;16.37;;;9.00;;
11300;SDS011;5706;50.650;13.380;2022-11-20T01:12:04;18.60;;;8.47;;
11300;SDS011;5706;50.650;13.380;2022-11-20T01:14:32;13.37;;;8.27;;
11300;SDS011;5706;50.650;13.380;2022-11-20T01:17:01;14.67;;;8.13;;
11300;SDS011;5706;50.650;13.380;2022-11-20T01:19:29;14.47;;;7.77;;
11300;SDS011;5706;50.650;13.380;2022-11-20T01:21:57;12.53;;;7.67;;
11300;SDS011;5706;50.650;13.380;2022-11-20T01:24:24;12.97;;;7.53;;
11300;SDS011;5706;50.650;13.380;2022-11-20T01:26:52;14.37;;;8.33;;
11300;SDS011;5706;50.650;13.380;2022-11-20T01:29:21;14.43;;;7.00;;
11300;SDS011;5706;50.650;13.380;2022-11-20T01:31:50;11.37;;;7.53;;
11300;SDS011;5706;50.650;13.380;2022-11-20T01:34:20;15.00;;;8.20;;
11300;SDS011;5706;50.650;13.380;2022-11-20T01:36:50;14.47;;;8.90;;
11300;SDS011;5706;50.650;13.380;2022-11-20T01:39:19;16.97;;;8.93;;
11300;SDS011;5706;50.650;13.380;2022-11-20T01:41:49;14.07;;;9.13;;
11300;SDS011;5706;50.650;13.380;2022-11-20T01:47:26;11.00;;;7.40;;
11300;SDS011;5706;50.650;13.380;2022-11-20T01:50:01;13.33;;;7.03;;
11300;SDS011;5706;50.650;13.380;2022-11-20T01:52:38;16.13;;;8.13;;
11300;SDS011;5706;50.650;13.380;2022-11-20T01:55:11;11.40;;;6.57;;
11300;SDS011;5706;50.650;13.380;2022-11-20T01:57:43;16.77;;;8.40;;
11300;SDS011;5706;50.650;13.380;2022-11-20T02:00:14;12.63;;;7.97;;
11300;SDS011;5706;50.650;13.380;2022-11-20T02:02:45;13.73;;;7.67;;
11300;SDS011;5706;50.650;13.380;2022-11-20T02:05:20;15.37;;;9.50;;
11300;SDS011;5706;50.650;13.380;2022-11-20T02:07:54;15.47;;;8.03;;
11300;SDS011;5706;50.650;13.380;2022-11-20T02:10:25;13.00;;;8.13;;
11300;SDS011;5706;50.650;13.380;2022-11-20T02:12:55;13.50;;;7.50;;
11300;SDS011;5706;50.650;13.380;2022-11-20T02:15:41;14.47;;;7.93;;
11300;SDS011;5706;50.650;13.380;2022-11-20T02:18:09;8.57;;;5.13;;
11300;SDS011;5706;50.650;13.380;2022-11-20T02:20:43;9.73;;;6.33;;
11300;SDS011;5706;50.650;13.380;2022-11-20T02:23:15;13.37;;;7.17;;
11300;SDS011;5706;50.650;13.380;2022-11-20T02:25:53;7.90;;;5.93;;
11300;SDS011;5706;50.650;13.380;2022-11-20T02:28:24;8.63;;;5.40;;
11300;SDS011;5706;50.650;13.380;2022-11-20T02:30:52;9.80;;;6.00;;
11300;SDS011;5706;50.650;13.380;2022-11-20T02:33:19;10.27;;;5.97;;
11300;SDS011;5706;50.650;13.380;2022-11-20T02:35:47;10.43;;;6.03;;
11300;SDS011;5706;50.650;13.380;2022-11-20T02:38:15;10.60;;;5.93;;
11300;SDS011;5706;50.650;13.380;2022-11-20T02:40:42;10.00;;;5.13;;
11300;SDS011;5706;50.650;13.380;2022-11-20T02:43:11;9.07;;;5.67;;
11300;SDS011;5706;50.650;13.380;2022-11-20T02:45:41;11.97;;;6.83;;
11300;SDS011;5706;50.650;13.380;2022-11-20T02:48:09;10.40;;;6.43;;
11300;SDS011;5706;50.650;13.380;2022-11-20T02:50:37;10.80;;;6.23;;
11300;SDS011;5706;50.650;13.380;2022-11-20T02:53:06;11.87;;;6.53;;
11300;SDS011;5706;50.650;13.380;2022-11-20T02:55:33;10.80;;;6.40;;
11300;SDS011;5706;50.650;13.380;2022-11-20T02:58:01;9.10;;;6.30;;
11300;SDS011;5706;50.650;13.380;2022-11-20T03:00:30;10.63;;;5.67;;
11300;SDS011;5706;50.650;13.380;2022-11-20T03:02:58;13.23;;;6.30;;
11300;SDS011;5706;50.650;13.380;2022-11-20T03:05:26;10.73;;;5.67;;
11300;SDS011;5706;50.650;13.380;2022-11-20T03:07:53;13.90;;;6.20;;
11300;SDS011;5706;50.650;13.380;2022-11-20T03:10:21;9.60;;;6.07;;
11300;SDS011;5706;50.650;13.380;2022-11-20T03:12:52;11.93;;;6.67;;
11300;SDS011;5706;50.650;13.380;2022-11-20T03:15:21;10.07;;;5.77;;
11300;SDS011;5706;50.650;13.380;2022-11-20T03:17:52;10.37;;;5.13;;
11300;SDS011;5706;50.650;13.380;2022-11-20T03:20:21;10.07;;;5.50;;
11300;SDS011;5706;50.650;13.380;2022-11-20T03:22:49;7.97;;;4.97;;
11300;SDS011;5706;50.650;13.380;2022-11-20T03:25:16;9.40;;;5.33;;
11300;SDS011;5706;50.650;13.380;2022-11-20T03:27:44;9.83;;;6.47;;
11300;SDS011;5706;50.650;13.380;2022-11-20T03:30:12;12.07;;;5.47;;
11300;SDS011;5706;50.650;13.380;2022-11-20T03:32:40;7.03;;;4.67;;
11300;SDS011;5706;50.650;13.380;2022-11-20T03:35:09;10.90;;;5.97;;
11300;SDS011;5706;50.650;13.380;2022-11-20T03:37:37;8.47;;;6.07;;
11300;SDS011;5706;50.650;13.380;2022-11-20T03:40:06;7.33;;;5.33;;
11300;SDS011;5706;50.650;13.380;2022-11-20T03:42:34;9.63;;;4.93;;
11300;SDS011;5706;50.650;13.380;2022-11-20T03:45:12;10.63;;;6.20;;
11300;SDS011;5706;50.650;13.380;2022-11-20T03:47:41;9.90;;;5.53;;
11300;SDS011;5706;50.650;13.380;2022-11-20T03:50:11;12.80;;;6.23;;
11300;SDS011;5706;50.650;13.380;2022-11-20T03:52:40;12.87;;;6.37;;
11300;SDS011;5706;50.650;13.380;2022-11-20T03:55:08;12.30;;;6.80;;
11300;SDS011;5706;50.650;13.380;2022-11-20T03:57:35;10.83;;;5.80;;
11300;SDS011;5706;50.650;13.380;2022-11-20T04:00:03;15.13;;;7.67;;
11300;SDS011;5706;50.650;13.380;2022-11-20T04:02:32;13.20;;;8.37;;
11300;SDS011;5706;50.650;13.380;2022-11-20T04:05:00;17.23;;;8.53;;
11300;SDS011;5706;50.650;13.380;2022-11-20T04:07:30;18.03;;;8.90;;
11300;SDS011;5706;50.650;13.380;2022-11-20T04:09:59;15.20;;;8.87;;
11300;SDS011;5706;50.650;13.380;2022-11-20T04:12:31;18.90;;;9.43;;
11300;SDS011;5706;50.650;13.380;2022-11-20T04:14:59;16.77;;;8.63;;
11300;SDS011;5706;50.650;13.380;2022-11-20T04:17:28;13.77;;;8.47;;
11300;SDS011;5706;50.650;13.380;2022-11-20T04:19:56;20.07;;;9.47;;
11300;SDS011;5706;50.650;13.380;2022-11-20T04:22:23;20.37;;;10.70;;
11300;SDS011;5706;50.650;13.380;2022-11-20T04:24:52;15.03;;;9.53;;
11300;SDS011;5706;50.650;13.380;2022-11-20T04:27:20;19.70;;;9.13;;
11300;SDS011;5706;50.650;13.380;2022-11-20T04:29:47;19.27;;;9.70;;
11300;SDS011;5706;50.650;13.380;2022-11-20T04:32:15;15.63;;;9.53;;
11300;SDS011;5706;50.650;13.380;2022-11-20T04:34:43;15.90;;;8.03;;
11300;SDS011;5706;50.650;13.380;2022-11-20T04:37:10;14.17;;;8.50;;
11300;SDS011;5706;50.650;13.380;2022-11-20T04:39:38;16.87;;;8.83;;
11300;SDS011;5706;50.650;13.380;2022-11-20T04:42:07;17.97;;;9.27;;
11300;SDS011;5706;50.650;13.380;2022-11-20T04:44:54;14.67;;;7.83;;
11300;SDS011;5706;50.650;13.380;2022-11-20T04:47:22;15.83;;;7.93;;
11300;SDS011;5706;50.650;13.380;2022-11-20T04:49:50;13.27;;;7.33;;
11300;SDS011;5706;50.650;13.380;2022-11-20T04:52:18;12.17;;;7.23;;
11300;SDS011;5706;50.650;13.380;2022-11-20T04:54:46;11.50;;;6.70;;
11300;SDS011;5706;50.650;13.380;2022-11-20T04:57:15;15.13;;;7.97;;
11300;SDS011;5706;50.650;13.380;2022-11-20T04:59:43;13.70;;;7.37;;
11300;SDS011;5706;50.650;13.380;2022-11-20T05:02:10;16.73;;;7.87;;
11300;SDS011;5706;50.650;13.380;2022-11-20T05:04:38;12.47;;;7.37;;
11300;SDS011;5706;50.650;13.380;2022-11-20T05:07:05;13.83;;;7.27;;
11300;SDS011;5706;50.650;13.380;2022-11-20T05:09:33;12.60;;;7.10;;
11300;SDS011;5706;50.650;13.380;2022-11-20T05:12:01;15.27;;;7.47;;
11300;SDS011;5706;50.650;13.380;2022-11-20T05:14:30;13.53;;;7.13;;
11300;SDS011;5706;50.650;13.380;2022-11-20T05:16:58;14.80;;;8.20;;
11300;SDS011;5706;50.650;13.380;2022-11-20T05:19:25;11.57;;;6.50;;
11300;SDS011;5706;50.650;13.380;2022-11-20T05:21:53;10.83;;;6.37;;
11300;SDS011;5706;50.650;13.380;2022-11-20T05:24:21;10.13;;;6.10;;
11300;SDS011;5706;50.650;13.380;2022-11-20T05:26:48;12.20;;;7.00;;
11300;SDS011;5706;50.650;13.380;2022-11-20T05:29:16;12.40;;;6.73;;
11300;SDS011;5706;50.650;13.380;2022-11-20T05:31:45;13.57;;;7.87;;
11300;SDS011;5706;50.650;13.380;2022-11-20T05:34:12;10.93;;;6.67;;
11300;SDS011;5706;50.650;13.380;2022-11-20T05:36:40;11.27;;;7.07;;
11300;SDS011;5706;50.650;13.380;2022-11-20T05:39:08;14.93;;;7.90;;
11300;SDS011;5706;50.650;13.380;2022-11-20T05:41:35;15.10;;;8.10;;
11300;SDS011;5706;50.650;13.380;2022-11-20T05:44:03;13.67;;;7.30;;
11300;SDS011;5706;50.650;13.380;2022-11-20T05:46:31;13.33;;;7.10;;
11300;SDS011;5706;50.650;13.380;2022-11-20T05:49:00;13.97;;;7.13;;
11300;SDS011;5706;50.650;13.380;2022-11-20T05:51:29;12.00;;;6.87;;
11300;SDS011;5706;50.650;13.380;2022-11-20T05:53:56;9.53;;;6.50;;
11300;SDS011;5706;50.650;13.380;2022-11-20T05:56:24;13.60;;;7.53;;
11300;SDS011;5706;50.650;13.380;2022-11-20T05:58:52;12.37;;;7.13;;
11300;SDS011;5706;50.650;13.380;2022-11-20T06:01:20;18.47;;;7.97;;
11300;SDS011;5706;50.650;13.380;2022-11-20T06:03:51;13.57;;;6.87;;
11300;SDS011;5706;50.650;13.380;2022-11-20T06:06:21;11.93;;;6.57;;
11300;SDS011;5706;50.650;13.380;2022-11-20T06:08:50;11.93;;;6.60;;
11300;SDS011;5706;50.650;13.380;2022-11-20T06:11:17;12.63;;;6.73;;
11300;SDS011;5706;50.650;13.380;2022-11-20T06:13:45;12.23;;;6.90;;
11300;SDS011;5706;50.650;13.380;2022-11-20T06:16:14;12.27;;;7.23;;
11300;SDS011;5706;50.650;13.380;2022-11-20T06:18:44;11.30;;;7.03;;
11300;SDS011;5706;50.650;13.380;2022-11-20T06:21:13;12.70;;;6.87;;
11300;SDS011;5706;50.650;13.380;2022-11-20T06:23:44;12.57;;;6.93;;
11300;SDS011;5706;50.650;13.380;2022-11-20T06:26:13;12.80;;;7.27;;
11300;SDS011;5706;50.650;13.380;2022-11-20T06:28:43;11.67;;;6.57;;
11300;SDS011;5706;50.650;13.380;2022-11-20T06:31:12;10.53;;;6.17;;
11300;SDS011;5706;50.650;13.380;2022-11-20T06:33:42;10.37;;;6.23;;
11300;SDS011;5706;50.650;13.380;2022-11-20T06:36:11;11.83;;;6.17;;
11300;SDS011;5706;50.650;13.380;2022-11-20T06:38:40;11.70;;;6.40;;
11300;SDS011;5706;50.650;13.380;2022-11-20T06:41:12;11.53;;;6.30;;
11300;SDS011;5706;50.650;13.380;2022-11-20T06:43:43;12.03;;;7.90;;
11300;SDS011;5706;50.650;13.380;2022-11-20T06:46:11;14.73;;;7.13;;
11300;SDS011;5706;50.650;13.380;2022-11-20T06:48:42;14.30;;;6.90;;
11300;SDS011;5706;50.650;13.380;2022-11-20T06:51:10;18.97;;;10.57;;
11300;SDS011;5706;50.650;13.380;2022-11-20T06:53:39;18.70;;;9.60;;
11300;SDS011;5706;50.650;13.380;2022-11-20T06:56:08;10.63;;;7.03;;
11300;SDS011;5706;50.650;13.380;2022-11-20T06:58:36;11.93;;;7.67;;
11300;SDS011;5706;50.650;13.380;2022-11-20T07:01:05;18.30;;;9.27;;
11300;SDS011;5706;50.650;13.380;2022-11-20T07:03:35;16.27;;;8.27;;
11300;SDS011;5706;50.650;13.380;2022-11-20T07:06:04;18.27;;;9.13;;
11300;SDS011;5706;50.650;13.380;2022-11-20T07:08:32;15.30;;;8.90;;
11300;SDS011;5706;50.650;13.380;2022-11-20T07:11:01;18.53;;;7.47;;
11300;SDS011;5706;50.650;13.380;2022-11-20T07:13:33;11.53;;;7.60;;
11300;SDS011;5706;50.650;13.380;2022-11-20T07:16:02;17.43;;;8.73;;
11300;SDS011;5706;50.650;13.380;2022-11-20T07:18:33;13.17;;;7.33;;
11300;SDS011;5706;50.650;13.380;2022-11-20T07:21:01;13.03;;;7.27;;
11300;SDS011;5706;50.650;13.380;2022-11-20T07:23:30;11.50;;;6.57;;
11300;SDS011;5706;50.650;13.380;2022-11-20T07:25:57;12.37;;;6.07;;
11300;SDS011;5706;50.650;13.380;2022-11-20T07:28:29;8.63;;;5.40;;
11300;SDS011;5706;50.650;13.380;2022-11-20T07:30:58;12.20;;;5.73;;
11300;SDS011;5706;50.650;13.380;2022-11-20T07:33:25;12.90;;;6.53;;
11300;SDS011;5706;50.650;13.380;2022-11-20T07:35:53;9.43;;;5.67;;
11300;SDS011;5706;50.650;13.380;2022-11-20T07:38:21;11.73;;;5.80;;
11300;SDS011;5706;50.650;13.380;2022-11-20T07:40:48;9.53;;;5.83;;
11300;SDS011;5706;50.650;13.380;2022-11-20T07:43:22;9.13;;;5.80;;
11300;SDS011;5706;50.650;13.380;2022-11-20T07:45:51;10.07;;;5.97;;
11300;SDS011;5706;50.650;13.380;2022-11-20T07:48:22;7.43;;;4.20;;
11300;SDS011;5706;50.650;13.380;2022-11-20T07:50:52;8.60;;;5.60;;
11300;SDS011;5706;50.650;13.380;2022-11-20T07:53:20;5.37;;;4.17;;
11300;SDS011;5706;50.650;13.380;2022-11-20T07:55:48;7.03;;;4.63;;
11300;SDS011;5706;50.650;13.380;2022-11-20T07:58:17;8.10;;;5.40;;
11300;SDS011;5706;50.650;13.380;2022-11-20T08:00:45;9.13;;;4.70;;
11300;SDS011;5706;50.650;13.380;2022-11-20T08:03:13;7.37;;;4.80;;
11300;SDS011;5706;50.650;13.380;2022-11-20T08:05:42;9.60;;;4.87;;
11300;SDS011;5706;50.650;13.380;2022-11-20T08:08:09;7.97;;;4.67;;
11300;SDS011;5706;50.650;13.380;2022-11-20T08:10:37;7.33;;;4.13;;
11300;SDS011;5706;50.650;13.380;2022-11-20T08:13:13;6.90;;;4.70;;
11300;SDS011;5706;50.650;13.380;2022-11-20T08:16:07;8.10;;;4.80;;
11300;SDS011;5706;50.650;13.380;2022-11-20T08:18:38;9.80;;;5.23;;
11300;SDS011;5706;50.650;13.380;2022-11-20T08:21:23;7.57;;;5.10;;
11300;SDS011;5706;50.650;13.380;2022-11-20T08:23:51;9.20;;;5.97;;
11300;SDS011;5706;50.650;13.380;2022-11-20T08:26:19;10.20;;;5.77;;
11300;SDS011;5706;50.650;13.380;2022-11-20T08:28:48;8.43;;;4.70;;
11300;SDS011;5706;50.650;13.380;2022-11-20T08:31:19;9.10;;;5.90;;
11300;SDS011;5706;50.650;13.380;2022-11-20T08:33:48;10.60;;;6.17;;
11300;SDS011;5706;50.650;13.380;2022-11-20T08:36:16;12.83;;;6.30;;
11300;SDS011;5706;50.650;13.380;2022-11-20T08:38:48;10.77;;;5.93;;
11300;SDS011;5706;50.650;13.380;2022-11-20T08:41:16;9.37;;;5.40;;
11300;SDS011;5706;50.650;13.380;2022-11-20T08:43:51;9.93;;;5.10;;
11300;SDS011;5706;50.650;13.380;2022-11-20T08:46:22;7.50;;;5.30;;
11300;SDS011;5706;50.650;13.380;2022-11-20T08:48:51;8.53;;;5.10;;
11300;SDS011;5706;50.650;13.380;2022-11-20T08:51:22;7.63;;;5.13;;
11300;SDS011;5706;50.650;13.380;2022-11-20T08:53:51;10.13;;;5.77;;
11300;SDS011;5706;50.650;13.380;2022-11-20T08:56:19;6.70;;;4.07;;
11300;SDS011;5706;50.650;13.380;2022-11-20T08:58:46;10.17;;;5.67;;
11300;SDS011;5706;50.650;13.380;2022-11-20T09:01:15;10.27;;;5.43;;
11300;SDS011;5706;50.650;13.380;2022-11-20T09:03:45;7.17;;;5.10;;
11300;SDS011;5706;50.650;13.380;2022-11-20T09:06:13;9.90;;;6.20;;
11300;SDS011;5706;50.650;13.380;2022-11-20T09:08:41;7.87;;;5.63;;
11300;SDS011;5706;50.650;13.380;2022-11-20T09:11:11;10.00;;;6.10;;
11300;SDS011;5706;50.650;13.380;2022-11-20T09:13:38;8.80;;;5.97;;
11300;SDS011;5706;50.650;13.380;2022-11-20T09:16:07;9.00;;;5.77;;
11300;SDS011;5706;50.650;13.380;2022-11-20T09:18:35;9.73;;;5.80;;
11300;SDS011;5706;50.650;13.380;2022-11-20T09:21:04;8.17;;;5.80;;
11300;SDS011;5706;50.650;13.380;2022-11-20T09:23:36;11.17;;;6.90;;
11300;SDS011;5706;50.650;13.380;2022-11-20T09:26:06;10.03;;;6.80;;
11300;SDS011;5706;50.650;13.380;2022-11-20T09:28:37;8.63;;;6.23;;
11300;SDS011;5706;50.650;13.380;2022-11-20T09:38:51;9.83;;;5.67;;
11300;SDS011;5706;50.650;13.380;2022-11-20T09:41:26;10.57;;;6.57;;
11300;SDS011;5706;50.650;13.380;2022-11-20T09:44:19;10.67;;;6.13;;
11300;SDS011;5706;50.650;13.380;2022-11-20T09:47:18;9.90;;;6.30;;
11300;SDS011;5706;50.650;13.380;2022-11-20T09:50:07;11.43;;;7.17;;
11300;SDS011;5706;50.650;13.380;2022-11-20T09:52:55;10.30;;;6.30;;
11300;SDS011;5706;50.650;13.380;2022-11-20T09:55:42;10.37;;;6.27;;
11300;SDS011;5706;50.650;13.380;2022-11-20T09:58:15;10.57;;;6.17;;
11300;SDS011;5706;50.650;13.380;2022-11-20T10:01:00;7.00;;;5.03;;
11300;SDS011;5706;50.650;13.380;2022-11-20T10:03:50;20.13;;;12.00;;
11300;SDS011;5706;50.650;13.380;2022-11-20T10:06:24;12.23;;;7.70;;
11300;SDS011;5706;50.650;13.380;2022-11-20T10:09:00;10.67;;;6.23;;
11300;SDS011;5706;50.650;13.380;2022-11-20T10:11:46;11.07;;;6.13;;
11300;SDS011;5706;50.650;13.380;2022-11-20T10:14:49;10.47;;;7.20;;
11300;SDS011;5706;50.650;13.380;2022-11-20T10:18:03;9.43;;;5.73;;
11300;SDS011;5706;50.650;13.380;2022-11-20T10:21:11;8.90;;;6.53;;
11300;SDS011;5706;50.650;13.380;2022-11-20T10:24:19;9.27;;;6.43;;
11300;SDS011;5706;50.650;13.380;2022-11-20T10:30:39;8.27;;;4.77;;
11300;SDS011;5706;50.650;13.380;2022-11-20T10:33:21;7.17;;;4.53;;
11300;SDS011;5706;50.650;13.380;2022-11-20T16:49:56;9.17;;;6.50;;
11300;SDS011;5706;50.650;13.380;2022-11-20T22:03:45;17.60;;;10.20;;
11300;SDS011;5706;50.650;13.380;2022-11-20T22:06:14;20.97;;;11.63;;
11300;SDS011;5706;50.650;13.380;2022-11-20T22:08:43;9.53;;;7.37;;
11300;SDS011;5706;50.650;13.380;2022-11-20T22:11:11;14.37;;;8.07;;
11300;SDS011;5706;50.650;13.380;2022-11-20T22:13:41;13.33;;;8.80;;
11300;SDS011;5706;50.650;13.380;2022-11-20T22:16:28;9.97;;;6.93;;
11300;SDS011;5706;50.650;13.380;2022-11-20T22:18:58;11.90;;;7.57;;
11300;SDS011;5706;50.650;13.380;2022-11-20T22:21:27;10.97;;;7.20;;
11300;SDS011;5706;50.650;13.380;2022-11-20T22:23:56;11.77;;;7.63;;
11300;SDS011;5706;50.650;13.380;2022-11-20T22:26:25;11.33;;;8.40;;
11300;SDS011;5706;50.650;13.380;2022-11-20T22:28:56;9.53;;;6.80;;
11300;SDS011;5706;50.650;13.380;2022-11-20T22:31:26;11.50;;;8.33;;
11300;SDS011;5706;50.650;13.380;2022-11-20T22:33:55;13.07;;;8.37;;
11300;SDS011;5706;50.650;13.380;2022-11-20T22:36:28;13.00;;;6.97;;
11300;SDS011;5706;50.650;13.380;2022-11-20T22:38:57;11.23;;;7.57;;
11300;SDS011;5706;50.650;13.380;2022-11-20T22:41:29;10.73;;;7.10;;
11300;SDS011;5706;50.650;13.380;2022-11-20T22:43:58;13.20;;;8.00;;
11300;SDS011;5706;50.650;13.380;2022-11-20T22:46:30;10.70;;;7.17;;
11300;SDS011;5706;50.650;13.380;2022-11-20T22:49:01;10.20;;;7.27;;
11300;SDS011;5706;50.650;13.380;2022-11-20T22:51:32;11.43;;;7.73;;
11300;SDS011;5706;50.650;13.380;2022-11-20T22:54:02;11.90;;;7.50;;
11300;SDS011;5706;50.650;13.380;2022-11-20T22:56:30;11.27;;;6.57;;
11300;SDS011;5706;50.650;13.380;2022-11-20T22:58:59;13.23;;;8.27;;
11300;SDS011;5706;50.650;13.380;2022-11-20T23:01:27;12.83;;;7.50;;
11300;SDS011;5706;50.650;13.380;2022-11-20T23:03:58;11.73;;;6.67;;
11300;SDS011;5706;50.650;13.380;2022-11-20T23:06:30;7.10;;;5.63;;
11300;SDS011;5706;50.650;13.380;2022-11-20T23:08:59;10.43;;;7.30;;
11300;SDS011;5706;50.650;13.380;2022-11-20T23:11:29;9.63;;;6.80;;
11300;SDS011;5706;50.650;13.380;2022-11-20T23:13:59;9.20;;;6.40;;
11300;SDS011;5706;50.650;13.380;2022-11-20T23:16:30;11.33;;;7.20;;
11300;SDS011;5706;50.650;13.380;2022-11-20T23:19:00;12.50;;;7.43;;
11300;SDS011;5706;50.650;13.380;2022-11-20T23:21:32;11.07;;;7.47;;
11300;SDS011;5706;50.650;13.380;2022-11-20T23:24:00;10.87;;;7.60;;
11300;SDS011;5706;50.650;13.380;2022-11-20T23:26:30;10.83;;;7.10;;
11300;SDS011;5706;50.650;13.380;2022-11-20T23:29:02;9.13;;;6.33;;
11300;SDS011;5706;50.650;13.380;2022-11-20T23:31:45;8.93;;;5.53;;
11300;SDS011;5706;50.650;13.380;2022-11-20T23:34:15;9.63;;;6.00;;
11300;SDS011;5706;50.650;13.380;2022-11-20T23:36:45;9.43;;;5.97;;
11300;SDS011;5706;50.650;13.380;2022-11-20T23:39:14;10.57;;;6.80;;
11300;SDS011;5706;50.650;13.380;2022-11-20T23:41:44;9.20;;;5.17;;
11300;SDS011;5706;50.650;13.380;2022-11-20T23:44:13;6.80;;;4.90;;
11300;SDS011;5706;50.650;13.380;2022-11-20T23:46:45;8.30;;;6.13;;
11300;SDS011;5706;50.650;13.380;2022-11-20T23:49:17;7.67;;;4.97;;
11300;SDS011;5706;50.650;13.380;2022-11-20T23:51:47;5.37;;;4.37;;
11300;SDS011;5706;50.650;13.380;2022-11-20T23:54:22;7.13;;;4.63;;
11300;SDS011;5706;50.650;13.380;2022-11-20T23:57:02;8.13;;;5.37;;
